sensor_id;sensor_type;location;lat;lon;timestamp;pressure;altitude;pressure_sealevel;temperature;humidity
14790;BME280;7486;51.010;10.366;2023-02-11T00:01:28;99981.19;;;-1.15;73.83
14790;BME280;7486;51.010;10.366;2023-02-11T00:03:56;99995.63;;;-0.95;73.28
14790;BME280;7486;51.010;10.366;2023-02-11T00:06:24;99911.34;;;-1.51;73.45
14790;BME280;7486;51.010;10.366;2023-02-11T00:08:51;99961.13;;;-1.13;73.78
14790;BME280;7486;51.010;10.366;2023-02-11T00:11:19;99994.13;;;-0.99;74.34
14790;BME280;7486;51.010;10.366;2023-02-11T00:13:47;99667.69;;;-2.91;74.36
14790;BME280;7486;51.010;10.366;2023-02-11T00:16:16;99941.78;;;-1.23;74.49
14790;BME280;7486;51.010;10.366;2023-02-11T00:18:44;99934.34;;;-1.29;74.26
14790;BME280;7486;51.010;10.366;2023-02-11T00:21:12;99972.19;;;-1.09;74.71
14790;BME280;7486;51.010;10.366;2023-02-11T00:23:40;99929.16;;;-1.29;74.48
14790;BME280;7486;51.010;10.366;2023-02-11T00:26:12;99614.81;;;-3.19;74.54
14790;BME280;7486;51.010;10.366;2023-02-11T00:28:41;99684.19;;;-2.63;74.64
14790;BME280;7486;51.010;10.366;2023-02-11T00:31:09;99838.84;;;-1.69;74.40
14790;BME280;7486;51.010;10.366;2023-02-11T00:33:37;99938.78;;;-1.01;74.63
14790;BME280;7486;51.010;10.366;2023-02-11T00:36:06;99894.72;;;-1.18;74.07
14790;BME280;7486;51.010;10.366;2023-02-11T00:38:33;99896.88;;;-1.11;74.35
14790;BME280;7486;51.010;10.366;2023-02-11T00:41:00;99885.59;;;-1.39;75.92
14790;BME280;7486;51.010;10.366;2023-02-11T00:43:27;99876.25;;;-1.28;75.52
14790;BME280;7486;51.010;10.366;2023-02-11T00:45:54;99876.91;;;-1.10;75.21
14790;BME280;7486;51.010;10.366;2023-02-11T00:48:22;99877.09;;;-1.13;75.20
14790;BME280;7486;51.010;10.366;2023-02-11T00:50:48;99883.94;;;-1.12;75.47
14790;BME280;7486;51.010;10.366;2023-02-11T00:53:15;99766.53;;;-1.91;75.51
14790;BME280;7486;51.010;10.366;2023-02-11T00:55:42;99910.91;;;-1.13;77.12
14790;BME280;7486;51.010;10.366;2023-02-11T00:58:09;99839.16;;;-1.46;76.46
14790;BME280;7486;51.010;10.366;2023-02-11T01:00:35;99811.88;;;-1.53;76.82
14790;BME280;7486;51.010;10.366;2023-02-11T01:03:02;99610.97;;;-2.82;76.66
14790;BME280;7486;51.010;10.366;2023-02-11T01:05:30;99772.00;;;-1.81;77.15
14790;BME280;7486;51.010;10.366;2023-02-11T01:07:57;99803.44;;;-1.42;76.79
14790;BME280;7486;51.010;10.366;2023-02-11T01:10:24;99245.44;;;-4.86;76.21
14790;BME280;7486;51.010;10.366;2023-02-11T01:12:51;99635.84;;;-2.50;76.08
14790;BME280;7486;51.010;10.366;2023-02-11T01:15:19;99856.75;;;-1.07;76.02
14790;BME280;7486;51.010;10.366;2023-02-11T01:17:46;99241.59;;;-4.79;76.07
14790;BME280;7486;51.010;10.366;2023-02-11T01:20:18;99873.63;;;-0.85;75.96
14790;BME280;7486;51.010;10.366;2023-02-11T01:22:45;99838.06;;;-0.99;74.92
14790;BME280;7486;51.010;10.366;2023-02-11T01:25:14;99719.50;;;-1.86;74.85
14790;BME280;7486;51.010;10.366;2023-02-11T01:27:41;99791.56;;;-1.32;74.95
14790;BME280;7486;51.010;10.366;2023-02-11T01:30:11;99570.25;;;-2.66;74.43
14790;BME280;7486;51.010;10.366;2023-02-11T01:32:39;99905.31;;;-0.65;75.75
14790;BME280;7486;51.010;10.366;2023-02-11T01:35:07;99859.88;;;-1.16;75.90
14790;BME280;7486;51.010;10.366;2023-02-11T01:37:35;99822.94;;;-1.21;75.83
14790;BME280;7486;51.010;10.366;2023-02-11T01:40:04;99906.28;;;-0.66;75.59
14790;BME280;7486;51.010;10.366;2023-02-11T01:42:33;99903.38;;;-0.75;75.90
14790;BME280;7486;51.010;10.366;2023-02-11T01:45:02;99907.38;;;-0.70;76.64
14790;BME280;7486;51.010;10.366;2023-02-11T01:47:47;99913.97;;;-0.64;75.69
14790;BME280;7486;51.010;10.366;2023-02-11T01:50:14;99544.41;;;-2.97;75.12
14790;BME280;7486;51.010;10.366;2023-02-11T01:52:42;99332.63;;;-4.11;74.86
14790;BME280;7486;51.010;10.366;2023-02-11T01:55:10;99888.63;;;-1.03;76.80
14790;BME280;7486;51.010;10.366;2023-02-11T01:57:41;99496.59;;;-3.51;76.69
14790;BME280;7486;51.010;10.366;2023-02-11T02:00:26;99921.88;;;-0.80;76.75
14790;BME280;7486;51.010;10.366;2023-02-11T02:03:16;99913.88;;;-0.63;76.47
14790;BME280;7486;51.010;10.366;2023-02-11T02:08:37;99905.63;;;-0.83;77.01
14790;BME280;7486;51.010;10.366;2023-02-11T02:11:05;99909.78;;;-0.95;77.89
14790;BME280;7486;51.010;10.366;2023-02-11T02:13:35;99915.56;;;-0.90;77.50
14790;BME280;7486;51.010;10.366;2023-02-11T02:16:05;99861.59;;;-1.01;77.39
14790;BME280;7486;51.010;10.366;2023-02-11T02:33:05;99872.00;;;-0.72;77.79
14790;BME280;7486;51.010;10.366;2023-02-11T02:38:30;99859.03;;;-0.46;77.12
14790;BME280;7486;51.010;10.366;2023-02-11T02:41:12;99838.81;;;-0.69;78.28
14790;BME280;7486;51.010;10.366;2023-02-11T02:43:43;99831.91;;;-0.70;78.80
14790;BME280;7486;51.010;10.366;2023-02-11T02:46:20;99761.19;;;-1.03;78.98
14790;BME280;7486;51.010;10.366;2023-02-11T02:48:48;99707.53;;;-1.47;79.42
14790;BME280;7486;51.010;10.366;2023-02-11T02:51:41;99826.72;;;-0.70;79.52
14790;BME280;7486;51.010;10.366;2023-02-11T03:02:28;99833.00;;;-0.46;78.20
14790;BME280;7486;51.010;10.366;2023-02-11T03:05:24;99840.69;;;-0.44;78.23
14790;BME280;7486;51.010;10.366;2023-02-11T03:10:38;99829.81;;;-0.51;78.94
14790;BME280;7486;51.010;10.366;2023-02-11T03:13:06;99832.81;;;-0.57;79.88
14790;BME280;7486;51.010;10.366;2023-02-11T03:15:38;99782.44;;;-0.82;79.00
14790;BME280;7486;51.010;10.366;2023-02-11T03:18:10;99775.66;;;-0.99;79.52
14790;BME280;7486;51.010;10.366;2023-02-11T03:20:39;99789.41;;;-0.83;79.30
14790;BME280;7486;51.010;10.366;2023-02-11T03:23:12;99747.78;;;-0.83;78.84
14790;BME280;7486;51.010;10.366;2023-02-11T03:25:47;99709.19;;;-1.17;79.03
14790;BME280;7486;51.010;10.366;2023-02-11T03:28:30;99818.25;;;-0.32;78.93
14790;BME280;7486;51.010;10.366;2023-02-11T03:33:58;99791.91;;;-0.55;78.90
14790;BME280;7486;51.010;10.366;2023-02-11T03:36:44;99780.97;;;-0.60;79.04
14790;BME280;7486;51.010;10.366;2023-02-11T03:39:16;99797.06;;;-0.41;78.51
14790;BME280;7486;51.010;10.366;2023-02-11T03:41:47;99780.97;;;-0.60;78.99
14790;BME280;7486;51.010;10.366;2023-02-11T03:44:15;99811.78;;;-0.40;78.91
14790;BME280;7486;51.010;10.366;2023-02-11T03:46:47;99813.25;;;-0.35;78.99
14790;BME280;7486;51.010;10.366;2023-02-11T03:49:18;99771.91;;;-0.54;78.90
14790;BME280;7486;51.010;10.366;2023-02-11T03:51:47;99804.31;;;-0.31;79.10
14790;BME280;7486;51.010;10.366;2023-02-11T03:54:22;99805.44;;;-0.35;79.53
14790;BME280;7486;51.010;10.366;2023-02-11T03:56:52;99758.44;;;-0.47;78.96
14790;BME280;7486;51.010;10.366;2023-02-11T03:59:19;99678.09;;;-0.92;78.04
14790;BME280;7486;51.010;10.366;2023-02-11T04:01:46;99800.00;;;-0.06;78.20
14790;BME280;7486;51.010;10.366;2023-02-11T04:04:13;99735.63;;;-0.43;78.42
14790;BME280;7486;51.010;10.366;2023-02-11T04:06:40;99730.97;;;-0.38;77.89
14790;BME280;7486;51.010;10.366;2023-02-11T04:09:07;99765.63;;;-0.11;77.58
14790;BME280;7486;51.010;10.366;2023-02-11T04:11:33;99729.94;;;-0.35;77.44
14790;BME280;7486;51.010;10.366;2023-02-11T04:14:00;99687.78;;;-0.67;77.60
14790;BME280;7486;51.010;10.366;2023-02-11T04:16:27;99784.72;;;0.02;78.61
14790;BME280;7486;51.010;10.366;2023-02-11T04:18:54;99744.03;;;-0.25;78.16
14790;BME280;7486;51.010;10.366;2023-02-11T04:21:21;99683.81;;;-0.73;78.39
14790;BME280;7486;51.010;10.366;2023-02-11T04:23:48;99716.78;;;-0.47;78.52
14790;BME280;7486;51.010;10.366;2023-02-11T04:26:14;99748.78;;;-0.32;78.68
14790;BME280;7486;51.010;10.366;2023-02-11T04:28:41;99733.88;;;-0.43;78.68
14790;BME280;7486;51.010;10.366;2023-02-11T04:31:08;99678.41;;;-0.70;78.23
14790;BME280;7486;51.010;10.366;2023-02-11T04:33:35;99788.09;;;-0.22;78.99
14790;BME280;7486;51.010;10.366;2023-02-11T04:36:01;99724.75;;;-0.62;79.60
14790;BME280;7486;51.010;10.366;2023-02-11T04:38:28;99437.00;;;-2.22;79.08
14790;BME280;7486;51.010;10.366;2023-02-11T04:40:56;99786.72;;;-0.28;79.46
14790;BME280;7486;51.010;10.366;2023-02-11T04:43:23;99723.44;;;-0.55;79.46
14790;BME280;7486;51.010;10.366;2023-02-11T04:45:50;99633.84;;;-1.05;78.80
14790;BME280;7486;51.010;10.366;2023-02-11T04:48:17;99777.31;;;-0.04;78.43
14790;BME280;7486;51.010;10.366;2023-02-11T04:50:44;99694.38;;;-0.62;79.16
14790;BME280;7486;51.010;10.366;2023-02-11T04:53:10;99683.59;;;-0.70;79.17
14790;BME280;7486;51.010;10.366;2023-02-11T04:55:37;99456.66;;;-2.32;79.93
14790;BME280;7486;51.010;10.366;2023-02-11T04:58:04;99779.56;;;-0.24;79.88
14790;BME280;7486;51.010;10.366;2023-02-11T05:00:30;99437.97;;;-2.37;79.41
14790;BME280;7486;51.010;10.366;2023-02-11T05:02:57;99741.47;;;-0.40;78.87
14790;BME280;7486;51.010;10.366;2023-02-11T05:05:24;99649.81;;;-0.97;79.47
14790;BME280;7486;51.010;10.366;2023-02-11T05:07:50;99487.75;;;-2.04;79.38
14790;BME280;7486;51.010;10.366;2023-02-11T05:10:17;99744.31;;;-0.30;79.04
14790;BME280;7486;51.010;10.366;2023-02-11T05:12:47;99585.59;;;-1.50;78.81
14790;BME280;7486;51.010;10.366;2023-02-11T05:15:13;99725.28;;;-0.57;79.35
14790;BME280;7486;51.010;10.366;2023-02-11T05:17:40;99761.03;;;-0.47;79.62
14790;BME280;7486;51.010;10.366;2023-02-11T05:20:07;99789.31;;;-0.28;79.23
14790;BME280;7486;51.010;10.366;2023-02-11T05:22:34;99682.94;;;-0.86;78.29
14790;BME280;7486;51.010;10.366;2023-02-11T05:25:01;99699.06;;;-0.54;77.76
14790;BME280;7486;51.010;10.366;2023-02-11T05:27:28;99802.63;;;0.07;78.20
14790;BME280;7486;51.010;10.366;2023-02-11T05:29:54;99559.66;;;-1.37;77.85
14790;BME280;7486;51.010;10.366;2023-02-11T05:32:21;99649.91;;;-0.59;77.42
14790;BME280;7486;51.010;10.366;2023-02-11T05:34:48;99648.13;;;-0.98;78.03
14790;BME280;7486;51.010;10.366;2023-02-11T05:37:15;99772.09;;;-0.04;78.35
14790;BME280;7486;51.010;10.366;2023-02-11T05:39:41;99765.91;;;-0.15;77.69
14790;BME280;7486;51.010;10.366;2023-02-11T05:42:08;99762.75;;;-0.20;78.19
14790;BME280;7486;51.010;10.366;2023-02-11T05:44:35;99600.78;;;-1.29;78.24
14790;BME280;7486;51.010;10.366;2023-02-11T05:47:02;99800.50;;;-0.13;79.00
14790;BME280;7486;51.010;10.366;2023-02-11T05:49:29;99810.06;;;-0.14;78.96
14790;BME280;7486;51.010;10.366;2023-02-11T05:51:56;99692.53;;;-0.74;78.98
14790;BME280;7486;51.010;10.366;2023-02-11T05:54:22;99734.72;;;-0.69;79.98
14790;BME280;7486;51.010;10.366;2023-02-11T05:56:49;99500.22;;;-2.37;80.58
14790;BME280;7486;51.010;10.366;2023-02-11T05:59:16;99552.91;;;-1.80;80.43
14790;BME280;7486;51.010;10.366;2023-02-11T06:01:42;99791.63;;;-0.23;80.88
14790;BME280;7486;51.010;10.366;2023-02-11T06:04:10;99675.25;;;-0.75;80.34
14790;BME280;7486;51.010;10.366;2023-02-11T06:06:36;99728.81;;;-0.58;79.70
14790;BME280;7486;51.010;10.366;2023-02-11T06:09:03;99744.69;;;-0.49;80.51
14790;BME280;7486;51.010;10.366;2023-02-11T06:11:30;99690.03;;;-0.75;81.06
14790;BME280;7486;51.010;10.366;2023-02-11T06:13:57;99757.91;;;-0.52;80.51
14790;BME280;7486;51.010;10.366;2023-02-11T06:16:23;99577.97;;;-1.38;80.04
14790;BME280;7486;51.010;10.366;2023-02-11T06:18:50;99759.47;;;-0.49;80.37
14790;BME280;7486;51.010;10.366;2023-02-11T06:21:17;99773.38;;;-0.23;80.42
14790;BME280;7486;51.010;10.366;2023-02-11T06:23:44;99716.69;;;-0.45;79.63
14790;BME280;7486;51.010;10.366;2023-02-11T06:26:20;99783.97;;;0.00;79.99
14790;BME280;7486;51.010;10.366;2023-02-11T06:28:47;99772.75;;;-0.00;79.33
14790;BME280;7486;51.010;10.366;2023-02-11T06:31:15;99796.91;;;0.02;79.43
14790;BME280;7486;51.010;10.366;2023-02-11T06:33:42;99795.22;;;0.01;79.48
14790;BME280;7486;51.010;10.366;2023-02-11T06:36:15;99766.44;;;-0.50;80.47
14790;BME280;7486;51.010;10.366;2023-02-11T06:38:43;99728.19;;;-0.62;80.73
14790;BME280;7486;51.010;10.366;2023-02-11T06:41:11;99773.38;;;-0.23;81.36
14790;BME280;7486;51.010;10.366;2023-02-11T06:43:38;99777.03;;;-0.26;81.42
14790;BME280;7486;51.010;10.366;2023-02-11T06:46:06;99703.09;;;-0.89;81.67
14790;BME280;7486;51.010;10.366;2023-02-11T06:48:34;99684.09;;;-1.04;81.58
14790;BME280;7486;51.010;10.366;2023-02-11T06:51:06;99773.84;;;-0.70;83.52
14790;BME280;7486;51.010;10.366;2023-02-11T06:53:35;99781.66;;;-0.44;81.94
14790;BME280;7486;51.010;10.366;2023-02-11T06:56:07;99564.50;;;-1.72;81.45
14790;BME280;7486;51.010;10.366;2023-02-11T06:58:35;99804.19;;;-0.30;81.21
14790;BME280;7486;51.010;10.366;2023-02-11T07:01:10;99802.88;;;-0.23;81.62
14790;BME280;7486;51.010;10.366;2023-02-11T07:03:40;99732.13;;;-0.69;81.89
14790;BME280;7486;51.010;10.366;2023-02-11T07:06:15;99710.63;;;-0.99;82.83
14790;BME280;7486;51.010;10.366;2023-02-11T07:08:43;99732.28;;;-0.72;82.30
14790;BME280;7486;51.010;10.366;2023-02-11T07:11:22;99602.28;;;-1.39;82.12
14790;BME280;7486;51.010;10.366;2023-02-11T07:13:51;99814.69;;;-0.17;81.67
14790;BME280;7486;51.010;10.366;2023-02-11T07:16:19;99806.59;;;-0.27;82.08
14790;BME280;7486;51.010;10.366;2023-02-11T07:18:47;99728.88;;;-0.72;82.27
14790;BME280;7486;51.010;10.366;2023-02-11T07:21:17;99685.63;;;-0.87;82.05
14790;BME280;7486;51.010;10.366;2023-02-11T07:23:44;99810.97;;;-0.27;83.00
14790;BME280;7486;51.010;10.366;2023-02-11T07:26:14;99642.22;;;-1.40;83.02
14790;BME280;7486;51.010;10.366;2023-02-11T07:28:43;99831.56;;;-0.10;82.69
14790;BME280;7486;51.010;10.366;2023-02-11T07:31:26;99693.50;;;-0.89;82.49
14790;BME280;7486;51.010;10.366;2023-02-11T07:33:55;99750.56;;;-0.59;82.16
14790;BME280;7486;51.010;10.366;2023-02-11T07:36:22;99833.47;;;-0.26;83.69
14790;BME280;7486;51.010;10.366;2023-02-11T07:38:49;99721.00;;;-0.85;83.31
14790;BME280;7486;51.010;10.366;2023-02-11T07:41:19;99848.00;;;-0.10;82.98
14790;BME280;7486;51.010;10.366;2023-02-11T07:43:46;99836.28;;;-0.03;82.14
14790;BME280;7486;51.010;10.366;2023-02-11T07:46:19;99840.63;;;-0.03;82.25
14790;BME280;7486;51.010;10.366;2023-02-11T07:48:47;99830.41;;;-0.06;81.91
14790;BME280;7486;51.010;10.366;2023-02-11T07:51:14;99852.19;;;0.20;80.96
14790;BME280;7486;51.010;10.366;2023-02-11T07:53:42;99605.41;;;-1.61;81.93
14790;BME280;7486;51.010;10.366;2023-02-11T07:56:10;99857.03;;;-0.01;81.97
14790;BME280;7486;51.010;10.366;2023-02-11T07:58:38;99858.94;;;0.09;82.26
14790;BME280;7486;51.010;10.366;2023-02-11T08:01:06;99667.72;;;-1.33;82.46
14790;BME280;7486;51.010;10.366;2023-02-11T08:03:35;99838.22;;;-0.06;82.57
14790;BME280;7486;51.010;10.366;2023-02-11T08:06:09;99743.63;;;-0.59;81.94
14790;BME280;7486;51.010;10.366;2023-02-11T08:08:36;99750.66;;;-0.61;81.88
14790;BME280;7486;51.010;10.366;2023-02-11T08:11:16;99823.09;;;-0.41;83.34
14790;BME280;7486;51.010;10.366;2023-02-11T08:13:44;99858.41;;;-0.22;83.72
14790;BME280;7486;51.010;10.366;2023-02-11T08:16:21;99865.56;;;-0.26;84.11
14790;BME280;7486;51.010;10.366;2023-02-11T08:18:49;99763.19;;;-0.80;84.06
14790;BME280;7486;51.010;10.366;2023-02-11T08:21:16;99788.41;;;-0.68;83.95
14790;BME280;7486;51.010;10.366;2023-02-11T08:23:44;99851.22;;;-0.19;84.15
14790;BME280;7486;51.010;10.366;2023-02-11T08:26:18;99843.38;;;-0.31;84.93
14790;BME280;7486;51.010;10.366;2023-02-11T08:28:46;99841.44;;;-0.15;84.18
14790;BME280;7486;51.010;10.366;2023-02-11T08:31:19;99789.69;;;-0.61;83.73
14790;BME280;7486;51.010;10.366;2023-02-11T08:33:46;99822.13;;;-0.52;85.20
14790;BME280;7486;51.010;10.366;2023-02-11T08:36:20;99719.03;;;-1.36;84.91
14790;BME280;7486;51.010;10.366;2023-02-11T08:38:48;99701.75;;;-1.23;85.15
14790;BME280;7486;51.010;10.366;2023-02-11T08:41:15;99845.09;;;-0.18;84.72
14790;BME280;7486;51.010;10.366;2023-02-11T08:43:44;99778.00;;;-0.68;85.27
14790;BME280;7486;51.010;10.366;2023-02-11T08:46:13;99720.88;;;-0.96;84.90
14790;BME280;7486;51.010;10.366;2023-02-11T08:48:42;99805.00;;;-0.42;84.94
14790;BME280;7486;51.010;10.366;2023-02-11T08:51:13;99859.28;;;-0.09;85.80
14790;BME280;7486;51.010;10.366;2023-02-11T08:53:41;99817.63;;;-0.36;85.64
14790;BME280;7486;51.010;10.366;2023-02-11T08:56:08;99834.88;;;-0.21;84.98
14790;BME280;7486;51.010;10.366;2023-02-11T08:58:39;99737.88;;;-0.78;85.43
14790;BME280;7486;51.010;10.366;2023-02-11T09:01:20;99867.59;;;0.10;84.74
14790;BME280;7486;51.010;10.366;2023-02-11T09:03:48;99788.50;;;-0.28;84.04
14790;BME280;7486;51.010;10.366;2023-02-11T09:06:15;99813.16;;;-0.07;84.00
14790;BME280;7486;51.010;10.366;2023-02-11T09:08:44;99812.31;;;0.05;84.91
14790;BME280;7486;51.010;10.366;2023-02-11T09:11:12;99851.09;;;0.49;83.49
14790;BME280;7486;51.010;10.366;2023-02-11T09:13:39;99732.06;;;-0.15;82.80
14790;BME280;7486;51.010;10.366;2023-02-11T09:16:07;99697.66;;;-0.33;82.31
14790;BME280;7486;51.010;10.366;2023-02-11T09:18:33;99790.91;;;0.27;83.24
14790;BME280;7486;51.010;10.366;2023-02-11T09:21:02;99695.03;;;-0.46;83.27
14790;BME280;7486;51.010;10.366;2023-02-11T09:23:29;99803.22;;;0.50;83.06
14790;BME280;7486;51.010;10.366;2023-02-11T09:25:56;99538.06;;;-0.85;81.63
14790;BME280;7486;51.010;10.366;2023-02-11T09:28:22;99792.59;;;0.53;81.50
14790;BME280;7486;51.010;10.366;2023-02-11T09:30:50;99810.41;;;0.34;81.39
14790;BME280;7486;51.010;10.366;2023-02-11T09:33:18;99761.06;;;-0.07;83.02
14790;BME280;7486;51.010;10.366;2023-02-11T09:35:44;99875.81;;;0.69;82.47
14790;BME280;7486;51.010;10.366;2023-02-11T09:38:11;99806.22;;;0.31;82.27
14790;BME280;7486;51.010;10.366;2023-02-11T09:40:42;99742.69;;;-0.18;82.83
14790;BME280;7486;51.010;10.366;2023-02-11T09:43:26;99760.03;;;0.08;82.78
14790;BME280;7486;51.010;10.366;2023-02-11T09:45:58;99828.25;;;0.52;82.44
14790;BME280;7486;51.010;10.366;2023-02-11T09:48:26;99877.75;;;0.92;81.45
14790;BME280;7486;51.010;10.366;2023-02-11T09:51:02;99779.94;;;0.34;81.89
14790;BME280;7486;51.010;10.366;2023-02-11T09:53:40;99839.13;;;0.72;81.80
14790;BME280;7486;51.010;10.366;2023-02-11T09:56:13;99878.25;;;0.84;81.58
14790;BME280;7486;51.010;10.366;2023-02-11T09:58:42;99824.16;;;0.36;82.09
14790;BME280;7486;51.010;10.366;2023-02-11T10:07:24;99893.81;;;0.86;82.21
14790;BME280;7486;51.010;10.366;2023-02-11T10:10:16;99692.84;;;-0.39;81.08
14790;BME280;7486;51.010;10.366;2023-02-11T10:16:18;99898.41;;;1.07;80.98
14790;BME280;7486;51.010;10.366;2023-02-11T10:23:00;99830.22;;;0.36;82.56
14790;BME280;7486;51.010;10.366;2023-02-11T10:26:43;99314.47;;;-2.95;83.46
14790;BME280;7486;51.010;10.366;2023-02-11T10:29:38;99612.13;;;-1.04;82.64
14790;BME280;7486;51.010;10.366;2023-02-11T10:32:23;99881.78;;;0.71;82.32
14790;BME280;7486;51.010;10.366;2023-02-11T10:34:55;99907.28;;;1.05;82.27
14790;BME280;7486;51.010;10.366;2023-02-11T10:37:24;99638.47;;;-0.56;81.51
14790;BME280;7486;51.010;10.366;2023-02-11T10:39:51;99502.31;;;-1.34;81.16
14790;BME280;7486;51.010;10.366;2023-02-11T10:42:18;99868.53;;;1.24;80.58
14790;BME280;7486;51.010;10.366;2023-02-11T10:47:22;99776.19;;;0.76;79.81
14790;BME280;7486;51.010;10.366;2023-02-11T10:49:52;99897.56;;;1.32;80.00
14790;BME280;7486;51.010;10.366;2023-02-11T10:52:23;99690.22;;;0.13;79.56
14790;BME280;7486;51.010;10.366;2023-02-11T10:55:04;99898.38;;;1.45;79.90
14790;BME280;7486;51.010;10.366;2023-02-11T10:57:42;99848.28;;;1.28;79.31
14790;BME280;7486;51.010;10.366;2023-02-11T11:00:41;99897.59;;;1.69;79.37
14790;BME280;7486;51.010;10.366;2023-02-11T11:03:20;99809.25;;;1.26;79.20
14790;BME280;7486;51.010;10.366;2023-02-11T11:05:52;99886.41;;;1.67;79.36
14790;BME280;7486;51.010;10.366;2023-02-11T11:08:45;99886.53;;;1.89;79.50
14790;BME280;7486;51.010;10.366;2023-02-11T11:11:18;99815.91;;;1.67;79.42
14790;BME280;7486;51.010;10.366;2023-02-11T11:18:49;99867.31;;;2.13;78.71
14790;BME280;7486;51.010;10.366;2023-02-11T11:21:21;99865.03;;;2.44;78.78
14790;BME280;7486;51.010;10.366;2023-02-11T11:23:59;99863.91;;;2.59;77.71
14790;BME280;7486;51.010;10.366;2023-02-11T11:26:42;99672.94;;;1.57;76.38
14790;BME280;7486;51.010;10.366;2023-02-11T11:29:15;99230.03;;;-0.94;75.63
14790;BME280;7486;51.010;10.366;2023-02-11T11:31:57;99748.16;;;2.22;75.05
14790;BME280;7486;51.010;10.366;2023-02-11T11:34:41;99516.91;;;0.68;75.27
14790;BME280;7486;51.010;10.366;2023-02-11T11:37:25;99841.25;;;2.36;76.14
14790;BME280;7486;51.010;10.366;2023-02-11T11:40:10;99834.25;;;2.36;76.36
14790;BME280;7486;51.010;10.366;2023-02-11T11:43:17;99878.13;;;2.90;75.84
14790;BME280;7486;51.010;10.366;2023-02-11T11:45:56;99785.56;;;2.23;75.28
14790;BME280;7486;51.010;10.366;2023-02-11T11:51:29;99877.75;;;2.37;77.25
14790;BME280;7486;51.010;10.366;2023-02-11T11:54:14;99840.88;;;2.29;77.44
14790;BME280;7486;51.010;10.366;2023-02-11T11:56:59;99860.06;;;2.17;78.36
14790;BME280;7486;51.010;10.366;2023-02-11T11:59:31;99883.72;;;2.39;78.28
14790;BME280;7486;51.010;10.366;2023-02-11T12:05:12;99876.25;;;2.57;77.79
14790;BME280;7486;51.010;10.366;2023-02-11T12:16:27;99854.84;;;2.17;78.74
14790;BME280;7486;51.010;10.366;2023-02-11T12:30:04;99829.25;;;1.38;80.15
14790;BME280;7486;51.010;10.366;2023-02-11T12:32:48;99865.22;;;1.95;79.92
14790;BME280;7486;51.010;10.366;2023-02-11T12:38:19;99821.13;;;1.67;79.06
14790;BME280;7486;51.010;10.366;2023-02-11T12:40:56;99873.53;;;2.00;79.49
14790;BME280;7486;51.010;10.366;2023-02-11T12:43:38;99872.84;;;1.98;79.18
14790;BME280;7486;51.010;10.366;2023-02-11T12:46:38;99726.63;;;1.01;79.51
14790;BME280;7486;51.010;10.366;2023-02-11T12:52:09;99856.31;;;1.61;79.98
14790;BME280;7486;51.010;10.366;2023-02-11T12:54:45;99763.81;;;1.29;79.25
14790;BME280;7486;51.010;10.366;2023-02-11T12:57:21;99813.38;;;1.41;78.90
14790;BME280;7486;51.010;10.366;2023-02-11T13:03:02;99772.09;;;1.23;79.30
14790;BME280;7486;51.010;10.366;2023-02-11T13:08:07;99870.38;;;2.07;78.52
14790;BME280;7486;51.010;10.366;2023-02-11T13:10:40;99658.03;;;0.63;79.36
14790;BME280;7486;51.010;10.366;2023-02-11T13:13:21;99844.69;;;1.78;79.46
14790;BME280;7486;51.010;10.366;2023-02-11T13:15:55;99809.53;;;1.58;79.25
14790;BME280;7486;51.010;10.366;2023-02-11T13:18:50;99869.25;;;1.99;78.90
14790;BME280;7486;51.010;10.366;2023-02-11T13:29:27;99860.47;;;1.76;80.32
14790;BME280;7486;51.010;10.366;2023-02-11T13:32:08;99865.09;;;1.73;79.94
14790;BME280;7486;51.010;10.366;2023-02-11T13:37:24;99845.25;;;1.70;79.34
14790;BME280;7486;51.010;10.366;2023-02-11T13:39:59;99886.34;;;2.16;79.04
14790;BME280;7486;51.010;10.366;2023-02-11T13:42:28;99847.25;;;1.90;78.35
14790;BME280;7486;51.010;10.366;2023-02-11T13:44:55;99892.59;;;1.89;79.61
14790;BME280;7486;51.010;10.366;2023-02-11T13:47:29;99900.59;;;1.99;79.40
14790;BME280;7486;51.010;10.366;2023-02-11T13:49:58;99791.38;;;1.56;78.21
14790;BME280;7486;51.010;10.366;2023-02-11T13:52:28;99816.91;;;1.77;78.38
14790;BME280;7486;51.010;10.366;2023-02-11T13:55:01;99802.69;;;1.44;79.18
14790;BME280;7486;51.010;10.366;2023-02-11T13:57:34;99819.75;;;1.61;79.31
14790;BME280;7486;51.010;10.366;2023-02-11T14:08:33;99885.75;;;1.76;80.49
14790;BME280;7486;51.010;10.366;2023-02-11T14:11:09;99675.56;;;0.48;80.43
14790;BME280;7486;51.010;10.366;2023-02-11T14:16:28;99548.22;;;-0.18;79.66
14790;BME280;7486;51.010;10.366;2023-02-11T14:19:04;99794.59;;;1.36;79.74
14790;BME280;7486;51.010;10.366;2023-02-11T14:21:34;99790.50;;;1.08;81.04
14790;BME280;7486;51.010;10.366;2023-02-11T14:26:54;99883.78;;;2.03;80.12
14790;BME280;7486;51.010;10.366;2023-02-11T14:29:40;99849.19;;;1.76;80.36
14790;BME280;7486;51.010;10.366;2023-02-11T14:32:40;99890.44;;;2.07;79.81
14790;BME280;7486;51.010;10.366;2023-02-11T14:43:19;99853.34;;;1.78;81.45
14790;BME280;7486;51.010;10.366;2023-02-11T14:45:53;99890.13;;;1.88;82.31
14790;BME280;7486;51.010;10.366;2023-02-11T14:48:27;99727.59;;;0.88;82.72
14790;BME280;7486;51.010;10.366;2023-02-11T14:51:02;99892.97;;;1.85;83.21
14790;BME280;7486;51.010;10.366;2023-02-11T14:53:33;99777.72;;;1.17;82.62
14790;BME280;7486;51.010;10.366;2023-02-11T14:56:00;99872.25;;;1.82;82.54
14790;BME280;7486;51.010;10.366;2023-02-11T14:58:29;99772.19;;;1.45;81.33
14790;BME280;7486;51.010;10.366;2023-02-11T15:01:05;99903.63;;;2.05;82.50
14790;BME280;7486;51.010;10.366;2023-02-11T15:03:37;99914.25;;;1.91;82.87
14790;BME280;7486;51.010;10.366;2023-02-11T15:06:20;99911.25;;;1.85;83.61
14790;BME280;7486;51.010;10.366;2023-02-11T15:08:51;99915.34;;;2.00;83.47
14790;BME280;7486;51.010;10.366;2023-02-11T15:11:20;99752.81;;;1.00;83.02
14790;BME280;7486;51.010;10.366;2023-02-11T15:13:48;99911.47;;;1.69;84.38
14790;BME280;7486;51.010;10.366;2023-02-11T15:16:19;99876.44;;;1.48;84.74
14790;BME280;7486;51.010;10.366;2023-02-11T15:18:55;99852.47;;;1.18;85.43
14790;BME280;7486;51.010;10.366;2023-02-11T15:21:24;99925.81;;;1.63;86.18
14790;BME280;7486;51.010;10.366;2023-02-11T15:24:03;99933.78;;;1.49;87.00
14790;BME280;7486;51.010;10.366;2023-02-11T15:26:34;99819.94;;;0.98;86.47
14790;BME280;7486;51.010;10.366;2023-02-11T15:29:01;99917.03;;;1.64;85.68
14790;BME280;7486;51.010;10.366;2023-02-11T15:31:28;99827.47;;;1.02;85.77
14790;BME280;7486;51.010;10.366;2023-02-11T15:34:05;99944.81;;;1.66;87.12